createdAt,value
2017-04-02T00:00:51.427Z,99.99
2017-04-02T00:02:00.321Z,99.99
2017-04-02T00:03:09.533Z,99.99
2017-04-02T00:04:18.748Z,99.99
2017-04-02T00:05:27.671Z,99.99
2017-04-02T00:06:36.714Z,99.99
2017-04-02T00:07:45.939Z,99.99
2017-04-02T00:08:55.155Z,99.99
2017-04-02T00:10:04.047Z,99.99
2017-04-02T00:11:12.936Z,99.99
2017-04-02T00:12:21.976Z,99.99
2017-04-02T00:13:30.866Z,99.99
2017-04-02T00:14:39.791Z,99.99
2017-04-02T00:15:48.683Z,99.99
2017-04-02T00:16:57.901Z,99.99
2017-04-02T00:18:07.165Z,99.99
2017-04-02T00:19:16.106Z,99.99
2017-04-02T00:20:25.001Z,99.99
2017-04-02T00:21:34.215Z,99.99
2017-04-02T00:22:43.435Z,99.99
2017-04-02T00:23:52.577Z,99.99
2017-04-02T00:25:01.798Z,99.99
2017-04-02T00:26:11.011Z,99.99
2017-04-02T00:27:19.899Z,99.99
2017-04-02T00:28:29.123Z,99.99
2017-04-02T00:29:38.012Z,99.99
2017-04-02T00:30:46.907Z,99.99
2017-04-02T00:31:55.795Z,99.99
2017-04-02T00:33:05.013Z,99.99
2017-04-02T00:34:13.907Z,99.99
2017-04-02T00:35:22.794Z,99.99
2017-04-02T00:36:31.683Z,99.99
2017-04-02T00:37:40.575Z,99.99
2017-04-02T00:38:49.463Z,99.99
2017-04-02T00:39:58.673Z,99.99
2017-04-02T00:41:07.810Z,99.99
2017-04-02T00:42:16.698Z,99.99
2017-04-02T00:43:25.590Z,99.99
2017-04-02T00:44:34.482Z,99.99
2017-04-02T00:45:43.370Z,99.99
2017-04-02T00:46:52.306Z,99.99
2017-04-02T00:48:01.522Z,99.99
2017-04-02T00:49:10.413Z,99.99
2017-04-02T00:50:19.301Z,99.99
2017-04-02T00:51:28.186Z,99.99
2017-04-02T00:52:37.273Z,99.99
2017-04-02T00:53:46.166Z,99.99
2017-04-02T00:54:55.379Z,99.99
2017-04-02T00:56:04.310Z,99.99
2017-04-02T00:57:13.202Z,99.99
2017-04-02T00:58:22.139Z,99.99
2017-04-02T00:59:31.027Z,99.99
2017-04-02T01:00:40.240Z,99.99
2017-04-02T01:01:49.779Z,99.99
2017-04-02T01:02:58.673Z,99.99
2017-04-02T01:04:07.617Z,99.99
2017-04-02T01:05:16.505Z,99.99
2017-04-02T01:06:25.393Z,99.99
2017-04-02T01:07:34.282Z,99.99
2017-04-02T01:08:43.176Z,99.99
2017-04-02T01:09:52.313Z,99.99
2017-04-02T01:11:01.203Z,99.99
2017-04-02T01:12:10.099Z,99.99
2017-04-02T01:13:19.319Z,99.99
2017-04-02T01:14:28.208Z,99.99
2017-04-02T01:15:37.474Z,99.99
2017-04-02T01:16:46.692Z,99.99
2017-04-02T01:17:55.584Z,99.99
2017-04-02T01:19:04.477Z,99.99
2017-04-02T01:20:13.373Z,99.99
2017-04-02T01:21:22.744Z,99.99
2017-04-02T01:22:31.629Z,99.99
2017-04-02T01:23:40.518Z,99.99
2017-04-02T01:24:49.406Z,99.99
2017-04-02T01:25:58.294Z,99.99
2017-04-02T01:27:07.336Z,99.99
2017-04-02T01:28:16.553Z,99.99
2017-04-02T01:29:25.441Z,99.99
2017-04-02T01:30:34.330Z,99.99
2017-04-02T01:31:43.869Z,99.99
2017-04-02T01:32:52.908Z,99.99
2017-04-02T01:34:01.798Z,99.99
2017-04-02T01:35:10.688Z,99.99
2017-04-02T01:36:19.581Z,99.99
2017-04-02T01:37:28.469Z,99.99
2017-04-02T01:38:37.404Z,99.99
2017-04-02T01:39:46.291Z,99.99
2017-04-02T01:40:55.180Z,99.99
2017-04-02T01:42:04.070Z,99.99
2017-04-02T01:43:12.962Z,99.99
2017-04-02T01:44:21.904Z,99.99
2017-04-02T01:45:31.455Z,99.99
2017-04-02T01:46:40.349Z,99.99
2017-04-02T01:47:49.560Z,99.99
2017-04-02T01:48:58.448Z,99.99
2017-04-02T01:50:07.713Z,99.99
2017-04-02T01:51:16.928Z,99.99
2017-04-02T01:52:25.831Z,99.99
2017-04-02T01:53:34.719Z,99.99
2017-04-02T01:54:43.609Z,99.99
2017-04-02T01:55:52.809Z,99.99
2017-04-02T01:57:01.738Z,99.99
2017-04-02T01:58:10.628Z,99.99
2017-04-02T01:59:19.838Z,99.99
2017-04-02T02:00:29.102Z,99.99
2017-04-02T02:01:38.297Z,99.99
2017-04-02T02:02:47.841Z,99.99
2017-04-02T02:03:57.055Z,99.99
2017-04-02T02:05:05.944Z,99.99
2017-04-02T02:06:14.841Z,99.99
2017-04-02T02:07:24.320Z,99.99
2017-04-02T02:08:33.535Z,99.99
2017-04-02T02:09:42.425Z,99.99
2017-04-02T02:10:51.636Z,99.99
2017-04-02T02:12:00.532Z,99.99
2017-04-02T02:13:09.804Z,99.99
2017-04-02T02:14:18.798Z,99.99
2017-04-02T02:15:27.693Z,99.99
2017-04-02T02:16:36.907Z,99.99
2017-04-02T02:17:46.123Z,99.99
2017-04-02T02:18:55.313Z,99.99
2017-04-02T02:20:04.208Z,99.99
2017-04-02T02:21:13.097Z,99.99
2017-04-02T02:22:21.987Z,99.99
2017-04-02T02:23:30.875Z,99.99
2017-04-02T02:24:40.166Z,99.99
2017-04-02T02:25:49.071Z,99.99
2017-04-02T02:26:57.961Z,99.99
2017-04-02T02:28:06.850Z,99.99
2017-04-02T02:29:15.739Z,99.99
2017-04-02T02:30:24.677Z,99.99
2017-04-02T02:31:34.216Z,99.99
2017-04-02T02:32:43.107Z,99.99
2017-04-02T02:33:52.004Z,99.99
2017-04-02T02:35:01.220Z,99.99
2017-04-02T02:36:10.111Z,99.99
2017-04-02T02:37:19.324Z,99.99
2017-04-02T02:38:28.216Z,99.99
2017-04-02T02:39:37.104Z,99.99
2017-04-02T02:40:46.316Z,99.99
2017-04-02T02:41:55.210Z,99.99
2017-04-02T02:43:04.109Z,99.99
2017-04-02T02:44:12.998Z,99.99
2017-04-02T02:45:21.889Z,99.99
2017-04-02T02:46:31.106Z,99.99
2017-04-02T02:47:40.143Z,99.99
2017-04-02T02:48:49.357Z,99.99
2017-04-02T02:49:58.254Z,99.99
2017-04-02T02:51:07.466Z,99.99
2017-04-02T02:52:16.355Z,99.99
2017-04-02T02:53:25.868Z,99.99
2017-04-02T02:54:34.759Z,99.99
2017-04-02T02:55:43.650Z,99.99
2017-04-02T02:56:52.543Z,99.99
2017-04-02T02:58:01.760Z,99.99
2017-04-02T02:59:11.224Z,99.99
2017-04-02T03:00:20.110Z,99.99
2017-04-02T03:01:28.999Z,99.99
2017-04-02T03:02:37.889Z,99.99
2017-04-02T03:03:46.780Z,99.99
2017-04-02T03:04:55.974Z,99.99
2017-04-02T03:06:04.870Z,99.99
2017-04-02T03:07:13.795Z,99.99
2017-04-02T03:08:22.681Z,99.99
2017-04-02T03:09:31.572Z,99.99
2017-04-02T03:10:40.616Z,99.99
2017-04-02T03:11:49.505Z,99.99
2017-04-02T03:12:58.395Z,99.99
2017-04-02T03:14:07.284Z,99.99
2017-04-02T03:15:16.174Z,99.99
2017-04-02T03:16:25.488Z,99.99
2017-04-02T03:17:34.383Z,99.99
2017-04-02T03:18:43.271Z,99.99
2017-04-02T03:19:52.486Z,99.99
2017-04-02T03:21:01.376Z,99.99
2017-04-02T03:22:10.415Z,99.99
2017-04-02T03:23:19.959Z,99.99
2017-04-02T03:24:29.170Z,99.99
2017-04-02T03:25:38.064Z,99.99
2017-04-02T03:26:46.957Z,99.99
2017-04-02T03:27:55.901Z,99.99
2017-04-02T03:29:04.790Z,99.99
2017-04-02T03:30:14.002Z,99.99
2017-04-02T03:31:22.895Z,99.99
2017-04-02T03:32:31.784Z,99.99
2017-04-02T03:33:40.674Z,99.99
2017-04-02T03:34:49.563Z,99.99
2017-04-02T03:35:58.460Z,99.99
2017-04-02T03:37:07.351Z,99.99
2017-04-02T03:38:16.244Z,99.99
2017-04-02T03:39:25.130Z,99.99
2017-04-02T03:40:34.345Z,99.99
2017-04-02T03:41:43.234Z,99.99
2017-04-02T03:42:52.126Z,99.99
2017-04-02T03:44:01.015Z,99.99
2017-04-02T03:45:10.385Z,99.99
2017-04-02T03:46:19.275Z,99.99
2017-04-02T03:47:28.164Z,99.99
2017-04-02T03:48:37.051Z,99.99
2017-04-02T03:49:45.939Z,99.99
2017-04-02T03:50:55.309Z,99.99
2017-04-02T03:52:04.204Z,99.99
2017-04-02T03:53:13.092Z,99.99
2017-04-02T03:54:21.980Z,99.99
2017-04-02T03:55:30.864Z,99.99
2017-04-02T03:56:40.078Z,99.99
2017-04-02T03:57:48.962Z,99.99
2017-04-02T03:58:57.850Z,99.99
2017-04-02T04:00:06.738Z,99.99
2017-04-02T04:01:15.623Z,99.99
2017-04-02T04:02:24.615Z,99.99
2017-04-02T04:03:33.505Z,99.99
2017-04-02T04:04:42.397Z,99.99
2017-04-02T04:05:51.289Z,99.99
2017-04-02T04:07:00.176Z,99.99
2017-04-02T04:08:09.406Z,99.99
2017-04-02T04:09:18.620Z,99.99
2017-04-02T04:10:27.519Z,99.99
2017-04-02T04:11:36.731Z,99.99
2017-04-02T04:12:45.620Z,99.99
2017-04-02T04:13:54.656Z,99.99
2017-04-02T04:15:03.545Z,99.99
2017-04-02T04:16:12.762Z,99.99
2017-04-02T04:17:21.656Z,99.99
2017-04-02T04:18:30.867Z,99.99
2017-04-02T04:19:39.806Z,99.99
2017-04-02T04:20:48.696Z,99.99
2017-04-02T04:21:57.584Z,99.99
2017-04-02T04:23:06.519Z,99.99
2017-04-02T04:24:15.408Z,99.99
2017-04-02T04:25:24.295Z,99.99
2017-04-02T04:26:33.184Z,99.99
2017-04-02T04:27:42.398Z,99.99
2017-04-02T04:28:51.323Z,99.99
2017-04-02T04:30:00.212Z,99.99
2017-04-02T04:31:09.676Z,99.99
2017-04-02T04:32:18.566Z,99.99
2017-04-02T04:33:27.785Z,99.99
2017-04-02T04:34:36.674Z,99.99
2017-04-02T04:35:45.565Z,99.99
2017-04-02T04:36:54.453Z,99.99
2017-04-02T04:38:03.342Z,99.99
2017-04-02T04:39:12.231Z,99.99
2017-04-02T04:40:21.158Z,99.99
2017-04-02T04:41:30.050Z,99.99
2017-04-02T04:42:39.137Z,99.99
2017-04-02T04:43:48.353Z,99.99
2017-04-02T04:44:57.247Z,99.99
2017-04-02T04:46:06.468Z,99.99
2017-04-02T04:47:15.694Z,99.99
2017-04-02T04:48:24.685Z,99.99
2017-04-02T04:49:33.576Z,99.99
2017-04-02T04:50:42.469Z,99.99
2017-04-02T04:51:51.686Z,99.99
2017-04-02T04:53:00.621Z,99.99
2017-04-02T04:54:09.514Z,99.99
2017-04-02T04:55:18.401Z,99.99
2017-04-02T04:56:27.335Z,99.99
2017-04-02T04:57:36.231Z,99.99
2017-04-02T04:58:45.445Z,99.99
2017-04-02T04:59:54.436Z,99.99
2017-04-02T05:01:03.982Z,99.99
2017-04-02T05:02:13.529Z,99.99
2017-04-02T05:03:22.418Z,99.99
2017-04-02T05:04:31.306Z,99.99
2017-04-02T05:05:40.346Z,99.99
2017-04-02T05:06:49.238Z,99.99
2017-04-02T05:07:58.126Z,99.99
2017-04-02T05:09:07.346Z,99.99
2017-04-02T05:10:16.239Z,99.99
2017-04-02T05:11:25.857Z,99.99
2017-04-02T05:12:34.748Z,99.99
2017-04-02T05:13:43.639Z,99.99
2017-04-02T05:14:52.529Z,99.99
2017-04-02T05:16:01.421Z,99.99
2017-04-02T05:17:10.799Z,99.99
2017-04-02T05:18:19.685Z,99.99
2017-04-02T05:19:28.910Z,99.99
2017-04-02T05:20:37.802Z,99.99
2017-04-02T05:21:47.053Z,99.99
2017-04-02T05:22:56.692Z,99.99
2017-04-02T05:24:05.583Z,99.99
2017-04-02T05:25:14.473Z,99.99
2017-04-02T05:26:23.365Z,99.99
2017-04-02T05:27:32.257Z,99.99
2017-04-02T05:28:41.199Z,99.99
2017-04-02T05:29:50.417Z,99.99
2017-04-02T05:30:59.310Z,99.99
2017-04-02T05:32:08.528Z,99.99
2017-04-02T05:33:17.425Z,99.99
2017-04-02T05:34:26.666Z,99.99
2017-04-02T05:35:35.598Z,99.99
2017-04-02T05:36:44.496Z,99.99
2017-04-02T05:37:53.713Z,99.99
2017-04-02T05:39:02.602Z,99.99
2017-04-02T05:40:11.545Z,99.99
2017-04-02T05:41:20.436Z,99.99
2017-04-02T05:42:29.658Z,99.99
2017-04-02T05:43:38.545Z,99.99
2017-04-02T05:44:47.437Z,99.99
2017-04-02T05:45:56.377Z,99.99
2017-04-02T05:47:05.270Z,99.99
2017-04-02T05:48:14.165Z,99.99
2017-04-02T05:49:23.059Z,99.99
2017-04-02T05:50:31.951Z,99.99
2017-04-02T05:51:40.990Z,99.99
2017-04-02T05:52:49.920Z,99.99
2017-04-02T05:53:58.808Z,99.99
2017-04-02T05:55:07.704Z,99.99
2017-04-02T05:56:16.921Z,99.99
2017-04-02T05:57:25.912Z,99.99
2017-04-02T05:58:34.806Z,99.99
2017-04-02T05:59:44.021Z,99.99
2017-04-02T06:00:53.240Z,99.99
2017-04-02T06:02:02.136Z,99.99
2017-04-02T06:03:11.127Z,99.99
2017-04-02T06:04:20.024Z,99.99
2017-04-02T06:05:29.249Z,99.99
2017-04-02T06:06:38.146Z,99.99
2017-04-02T06:07:47.360Z,99.99
2017-04-02T06:08:56.400Z,99.99
2017-04-02T06:10:05.336Z,99.99
2017-04-02T06:11:14.228Z,99.99
2017-04-02T06:12:23.122Z,99.99
2017-04-02T06:13:32.013Z,99.99
2017-04-02T06:14:41.055Z,99.99
2017-04-02T06:15:49.942Z,99.99
2017-04-02T06:16:59.157Z,99.99
2017-04-02T06:18:08.375Z,99.99
2017-04-02T06:19:17.267Z,99.99
2017-04-02T06:20:26.543Z,99.99
2017-04-02T06:21:35.435Z,99.99
2017-04-02T06:22:44.649Z,99.99
2017-04-02T06:23:53.536Z,99.99
2017-04-02T06:25:02.431Z,99.99
2017-04-02T06:26:11.725Z,99.99
2017-04-02T06:27:21.269Z,99.99
2017-04-02T06:28:30.159Z,99.99
2017-04-02T06:29:39.044Z,99.99
2017-04-02T06:30:47.930Z,99.99
2017-04-02T06:31:56.971Z,99.99
2017-04-02T06:33:06.837Z,99.99
2017-04-02T06:34:15.730Z,99.99
2017-04-02T06:35:24.620Z,99.99
2017-04-02T06:36:33.834Z,99.99
2017-04-02T06:37:42.721Z,99.99
2017-04-02T06:38:51.615Z,99.99
2017-04-02T06:40:00.826Z,99.99
2017-04-02T06:41:10.037Z,99.99
2017-04-02T06:42:18.931Z,99.99
2017-04-02T06:43:27.867Z,99.99
2017-04-02T06:44:36.754Z,99.99
2017-04-02T06:45:45.641Z,99.99
2017-04-02T06:46:54.535Z,99.99
2017-04-02T06:48:03.436Z,99.99
2017-04-02T06:49:12.479Z,99.99
2017-04-02T06:50:21.367Z,99.99
2017-04-02T06:51:30.580Z,99.99
2017-04-02T06:52:39.466Z,99.99
2017-04-02T06:53:48.358Z,99.99
2017-04-02T06:54:57.622Z,99.99
2017-04-02T06:56:06.837Z,99.99
2017-04-02T06:57:15.725Z,99.99
2017-04-02T06:58:24.607Z,99.99
2017-04-02T06:59:33.496Z,99.99
2017-04-02T07:00:42.687Z,99.99
2017-04-02T07:01:51.575Z,99.99
2017-04-02T07:03:00.465Z,99.99
2017-04-02T07:04:09.358Z,99.99
2017-04-02T07:05:18.607Z,99.99
2017-04-02T07:06:27.558Z,99.99
2017-04-02T07:07:36.800Z,99.99
2017-04-02T07:08:45.708Z,99.99
2017-04-02T07:09:54.607Z,99.99
2017-04-02T07:11:03.561Z,99.99
2017-04-02T07:12:12.808Z,99.99
2017-04-02T07:13:21.774Z,99.99
2017-04-02T07:14:30.825Z,99.99
2017-04-02T07:15:39.709Z,99.99
2017-04-02T07:16:48.611Z,99.99
2017-04-02T07:17:57.820Z,99.99
2017-04-02T07:19:07.083Z,99.99
2017-04-02T07:20:16.000Z,99.99
2017-04-02T07:21:25.226Z,99.99
2017-04-02T07:22:34.138Z,99.99
2017-04-02T07:23:43.356Z,99.99
2017-04-02T07:24:52.246Z,99.99
2017-04-02T07:26:01.455Z,99.99
2017-04-02T07:27:10.372Z,99.99
2017-04-02T07:28:19.592Z,99.99
2017-04-02T07:29:29.058Z,99.99
2017-04-02T07:30:38.017Z,99.99
2017-04-02T07:31:46.986Z,99.99
2017-04-02T07:32:56.203Z,99.99
2017-04-02T07:34:05.104Z,99.99
2017-04-02T07:35:14.474Z,99.99
2017-04-02T07:36:23.712Z,99.99
2017-04-02T07:37:32.604Z,99.99
2017-04-02T07:38:41.851Z,99.99
2017-04-02T07:39:50.737Z,99.99
2017-04-02T07:40:59.827Z,99.99
2017-04-02T07:42:09.073Z,99.99
2017-04-02T07:43:17.991Z,99.99
2017-04-02T07:44:27.259Z,99.99
2017-04-02T07:45:36.597Z,99.99
2017-04-02T07:46:45.894Z,99.99
2017-04-02T07:47:54.849Z,99.99
2017-04-02T07:49:03.809Z,99.99
2017-04-02T07:50:12.720Z,99.99
2017-04-02T07:51:21.611Z,99.99
2017-04-02T07:52:30.734Z,99.99
2017-04-02T07:53:39.776Z,99.99
2017-04-02T07:54:48.661Z,99.99
2017-04-02T07:55:57.559Z,99.99
2017-04-02T07:57:06.516Z,99.99
2017-04-02T07:58:16.097Z,99.99
2017-04-02T07:59:24.984Z,99.99
2017-04-02T08:00:33.949Z,99.99
2017-04-02T08:01:43.162Z,99.99
2017-04-02T08:02:52.104Z,99.99
2017-04-02T08:04:00.997Z,99.99
2017-04-02T08:05:09.893Z,99.99
2017-04-02T08:06:18.783Z,99.99
2017-04-02T08:07:27.676Z,99.99
2017-04-02T08:08:37.104Z,99.99
2017-04-02T08:09:46.343Z,99.99
2017-04-02T08:10:55.290Z,99.99
2017-04-02T08:12:04.538Z,99.99
2017-04-02T08:13:13.444Z,99.99
2017-04-02T08:14:22.344Z,99.99
2017-04-02T08:15:31.610Z,96.94
2017-04-02T08:16:40.497Z,95.36
2017-04-02T08:17:49.422Z,95.56
2017-04-02T08:18:58.315Z,93.36
2017-04-02T08:20:07.272Z,92.31
2017-04-02T08:21:16.401Z,93.07
2017-04-02T08:22:25.335Z,93.93
2017-04-02T08:23:34.225Z,92.88
2017-04-02T08:24:43.154Z,92.41
2017-04-02T08:25:52.048Z,92.41
2017-04-02T08:27:00.939Z,91.83
2017-04-02T08:28:09.830Z,92.5
2017-04-02T08:29:19.023Z,90.21
2017-04-02T08:30:28.112Z,90.78
2017-04-02T08:31:37.008Z,92.21
2017-04-02T08:32:46.224Z,91.45
2017-04-02T08:33:55.118Z,90.59
2017-04-02T08:35:04.489Z,88.97
2017-04-02T08:36:13.381Z,88.78
2017-04-02T08:37:22.605Z,88.59
2017-04-02T08:38:31.499Z,87.35
2017-04-02T08:39:41.052Z,85.53
2017-04-02T08:40:49.989Z,86.58
2017-04-02T08:41:59.205Z,86.43
2017-04-02T08:43:08.101Z,87.39
2017-04-02T08:44:16.992Z,85.96
2017-04-02T08:45:26.221Z,85.19
2017-04-02T08:46:35.366Z,83.86
2017-04-02T08:47:44.272Z,84.05
2017-04-02T08:48:53.159Z,83.18
2017-04-02T08:50:02.372Z,83.67
2017-04-02T08:51:11.269Z,82.61
2017-04-02T08:52:20.688Z,81.09
2017-04-02T08:53:29.585Z,79.12
2017-04-02T08:54:39.126Z,79.46
2017-04-02T08:55:48.018Z,79.65
2017-04-02T08:56:56.918Z,80.04
2017-04-02T08:58:05.820Z,80.61
2017-04-02T08:59:14.744Z,79.27
2017-04-02T09:00:23.670Z,79.36
2017-04-02T09:01:32.925Z,80.61
2017-04-02T09:02:42.154Z,79.08
2017-04-02T09:03:51.523Z,78.99
2017-04-02T09:05:00.739Z,79.27
2017-04-02T09:06:09.969Z,79.12
2017-04-02T09:07:18.858Z,78.45
2017-04-02T09:08:27.972Z,78.36
2017-04-02T09:09:37.172Z,77.59
2017-04-02T09:10:46.391Z,76.73
2017-04-02T09:11:55.283Z,76.92
2017-04-02T09:13:04.174Z,77.69
2017-04-02T09:14:13.072Z,77.21
2017-04-02T09:15:22.118Z,77.78
2017-04-02T09:16:31.056Z,77.5
2017-04-02T09:17:40.268Z,76.82
2017-04-02T09:18:49.158Z,76.35
2017-04-02T09:19:58.053Z,76.73
2017-04-02T09:21:07.373Z,77.87
2017-04-02T09:22:16.269Z,76.25
2017-04-02T09:23:25.161Z,75.68
2017-04-02T09:24:34.452Z,76.16
2017-04-02T09:25:43.348Z,76.1
2017-04-02T09:26:52.681Z,75.91
2017-04-02T09:28:02.102Z,75.24
2017-04-02T09:29:10.998Z,74.57
2017-04-02T09:30:20.214Z,74.48
2017-04-02T09:31:29.107Z,74.19
2017-04-02T09:32:38.051Z,74.19
2017-04-02T09:33:46.941Z,74.19
2017-04-02T09:34:55.831Z,73.23
2017-04-02T09:36:05.115Z,73.43
2017-04-02T09:37:14.364Z,73.71
2017-04-02T09:38:23.733Z,73.04
2017-04-02T09:39:32.659Z,73.46
2017-04-02T09:40:41.553Z,73.9
2017-04-02T09:41:50.446Z,73.9
2017-04-02T09:43:00.011Z,74.48
2017-04-02T09:44:09.127Z,74.28
2017-04-02T09:45:18.026Z,73.99
2017-04-02T09:46:27.245Z,74.85
2017-04-02T09:47:36.144Z,75.14
2017-04-02T09:48:45.037Z,75.62
2017-04-02T09:49:54.032Z,74.8
2017-04-02T09:51:02.941Z,74.22
2017-04-02T09:52:11.916Z,73.36
2017-04-02T09:53:20.896Z,74.41
2017-04-02T09:54:29.814Z,74.41
2017-04-02T09:55:38.707Z,74.41
2017-04-02T09:56:47.934Z,73.55
2017-04-02T09:57:56.827Z,72.6
2017-04-02T09:59:05.720Z,73.08
2017-04-02T10:00:14.611Z,72.41
2017-04-02T10:01:23.555Z,73.08
2017-04-02T10:02:32.454Z,72.02
2017-04-02T10:03:41.669Z,71.55
2017-04-02T10:04:50.561Z,71.36
2017-04-02T10:05:59.455Z,71.16
2017-04-02T10:07:08.500Z,71.45
2017-04-02T10:08:17.720Z,71.48
2017-04-02T10:09:26.939Z,71.58
2017-04-02T10:10:35.830Z,70.15
2017-04-02T10:11:44.722Z,70.62
2017-04-02T10:12:53.767Z,69.09
2017-04-02T10:14:02.695Z,68.13
2017-04-02T10:15:11.590Z,66.89
2017-04-02T10:16:20.810Z,67.27
2017-04-02T10:17:30.039Z,68.13
2017-04-02T10:18:39.084Z,68.9
2017-04-02T10:19:47.974Z,66.93
2017-04-02T10:20:57.201Z,67.37
2017-04-02T10:22:06.147Z,69.19
2017-04-02T10:23:15.693Z,68.04
2017-04-02T10:24:24.585Z,66.35
2017-04-02T10:25:33.807Z,66.74
2017-04-02T10:26:43.027Z,66.54
2017-04-02T10:27:52.246Z,65.01
2017-04-02T10:29:01.139Z,64.43
2017-04-02T10:30:10.035Z,63.86
2017-04-02T10:31:18.935Z,65.2
2017-04-02T10:32:28.158Z,65.01
2017-04-02T10:33:37.378Z,65.97
2017-04-02T10:34:46.270Z,66.16
2017-04-02T10:35:55.306Z,65.11
2017-04-02T10:37:04.210Z,62.74
2017-04-02T10:38:13.436Z,62.23
2017-04-02T10:39:22.326Z,63.67
2017-04-02T10:40:31.219Z,62.23
2017-04-02T10:41:40.164Z,61.69
2017-04-02T10:42:49.704Z,60.73
2017-04-02T10:43:58.609Z,60.35
2017-04-02T10:45:07.503Z,61.21
2017-04-02T10:46:16.398Z,60.35
2017-04-02T10:47:25.441Z,60.54
2017-04-02T10:48:34.332Z,60.25
2017-04-02T10:49:43.229Z,60.25
2017-04-02T10:50:52.451Z,61.98
2017-04-02T10:52:01.347Z,60.54
2017-04-02T10:53:10.568Z,59.68
2017-04-02T10:54:19.460Z,59.52
2017-04-02T10:55:28.523Z,58.17
2017-04-02T10:56:37.491Z,58.65
2017-04-02T10:57:46.652Z,58.75
2017-04-02T10:58:55.841Z,57.41
2017-04-02T11:00:04.746Z,57.21
2017-04-02T11:01:13.646Z,57.41
2017-04-02T11:02:22.588Z,57.31
2017-04-02T11:03:31.907Z,57.03
2017-04-02T11:04:40.997Z,56.64
2017-04-02T11:05:50.243Z,56.45
2017-04-02T11:06:59.466Z,56.26
2017-04-02T11:08:08.687Z,56.38
2017-04-02T11:09:17.628Z,57.43
2017-04-02T11:10:27.341Z,58.69
2017-04-02T11:11:36.240Z,58.69
2017-04-02T11:12:45.462Z,59.74
2017-04-02T11:13:54.678Z,57.53
2017-04-02T11:15:03.698Z,57.72
2017-04-02T11:16:12.596Z,56.67
2017-04-02T11:17:21.867Z,57.92
2017-04-02T11:18:31.095Z,57.31
2017-04-02T11:19:40.718Z,57.89
2017-04-02T11:20:49.892Z,57.63
2017-04-02T11:21:59.178Z,57.63
2017-04-02T11:23:08.076Z,57.34
2017-04-02T11:24:17.301Z,56.09
2017-04-02T11:25:26.529Z,56.09
2017-04-02T11:26:35.787Z,53.99
2017-04-02T11:27:44.954Z,53.22
2017-04-02T11:28:53.850Z,53.6
2017-04-02T11:30:02.747Z,53.22
2017-04-02T11:31:11.689Z,54.91
2017-04-02T11:32:21.248Z,55.71
2017-04-02T11:33:30.775Z,56.19
2017-04-02T11:34:39.672Z,56.38
2017-04-02T11:35:48.568Z,55.62
2017-04-02T11:36:57.465Z,56
2017-04-02T11:38:06.689Z,55.71
2017-04-02T11:39:15.840Z,55.04
2017-04-02T11:40:24.737Z,53.6
2017-04-02T11:41:33.631Z,52.07
2017-04-02T11:42:42.529Z,51.87
2017-04-02T11:43:51.427Z,52.45
2017-04-02T11:45:00.423Z,51.95
2017-04-02T11:46:09.967Z,52.71
2017-04-02T11:47:18.865Z,52.62
2017-04-02T11:48:27.760Z,52.62
2017-04-02T11:49:36.983Z,53.19
2017-04-02T11:50:46.261Z,53.09
2017-04-02T11:51:55.165Z,53.03
2017-04-02T11:53:04.056Z,53.67
2017-04-02T11:54:13.604Z,53.79
2017-04-02T11:55:22.501Z,52.45
2017-04-02T11:56:31.527Z,53.22
2017-04-02T11:57:40.423Z,53.12
2017-04-02T11:58:49.319Z,52.36
2017-04-02T11:59:58.211Z,52.57
2017-04-02T12:01:07.116Z,54.01
2017-04-02T12:02:16.067Z,53.63
2017-04-02T12:03:24.972Z,54.39
2017-04-02T12:04:33.884Z,54.39
2017-04-02T12:05:42.828Z,55.64
2017-04-02T12:06:51.724Z,54.21
2017-04-02T12:08:00.771Z,54.3
2017-04-02T12:09:10.321Z,54.11
2017-04-02T12:10:19.226Z,53.24
2017-04-02T12:11:28.445Z,50.65
2017-04-02T12:12:37.668Z,50.63
2017-04-02T12:13:46.716Z,51.2
2017-04-02T12:14:55.611Z,50.34
2017-04-02T12:16:04.518Z,51.78
2017-04-02T12:17:13.496Z,51.1
2017-04-02T12:18:22.445Z,51.3
2017-04-02T12:19:31.491Z,51.71
2017-04-02T12:20:40.401Z,51.32
2017-04-02T12:21:49.299Z,51.14
2017-04-02T12:22:58.241Z,51.83
2017-04-02T12:24:07.508Z,51.25
2017-04-02T12:25:16.431Z,50.2
2017-04-02T12:26:25.700Z,49.65
2017-04-02T12:27:34.638Z,47.53
2017-04-02T12:28:43.551Z,44.75
2017-04-02T12:29:52.711Z,44.17
2017-04-02T12:31:02.195Z,44.46
2017-04-02T12:32:11.468Z,45.61
2017-04-02T12:33:20.697Z,46.38
2017-04-02T12:34:29.931Z,47.71
2017-04-02T12:35:38.848Z,48.28
2017-04-02T12:36:48.224Z,47.51
2017-04-02T12:37:57.123Z,47.51
2017-04-02T12:39:06.345Z,48.07
2017-04-02T12:40:15.245Z,49.21
2017-04-02T12:41:24.146Z,48.07
2017-04-02T12:42:33.721Z,48.64
2017-04-02T12:43:42.623Z,49.12
2017-04-02T12:44:51.844Z,49.21
2017-04-02T12:46:00.739Z,48.16
2017-04-02T12:47:09.638Z,48.54
2017-04-02T12:48:18.691Z,48.16
2017-04-02T12:49:27.593Z,48.74
2017-04-02T12:50:36.489Z,48.54
2017-04-02T12:51:45.393Z,49.02
2017-04-02T12:52:54.296Z,49.24
2017-04-02T12:54:03.908Z,48.95
2017-04-02T12:55:12.804Z,48.95
2017-04-02T12:56:21.708Z,49.15
2017-04-02T12:57:31.258Z,49.05
2017-04-02T12:58:40.156Z,48.76
2017-04-02T12:59:49.210Z,48.38
2017-04-02T13:00:58.431Z,48.59
2017-04-02T13:02:07.659Z,48.21
2017-04-02T13:03:17.217Z,48.88
2017-04-02T13:04:26.116Z,48.88
2017-04-02T13:05:35.017Z,48.88
2017-04-02T13:06:44.242Z,49.26
2017-04-02T13:07:53.136Z,49.46
2017-04-02T13:09:02.683Z,49.65
2017-04-02T13:10:11.585Z,49.84
2017-04-02T13:11:20.637Z,49.55
2017-04-02T13:12:29.540Z,49.74
2017-04-02T13:13:38.758Z,49.55
2017-04-02T13:14:47.656Z,48.59
2017-04-02T13:15:56.553Z,49.17
2017-04-02T13:17:05.606Z,48.21
2017-04-02T13:18:14.505Z,49.07
2017-04-02T13:19:23.726Z,50.51
2017-04-02T13:20:32.627Z,49.36
2017-04-02T13:21:41.522Z,47.34
2017-04-02T13:22:50.621Z,47.25
2017-04-02T13:23:59.515Z,47.25
2017-04-02T13:25:08.413Z,46.28
2017-04-02T13:26:17.313Z,46.48
2017-04-02T13:27:26.565Z,46.69
2017-04-02T13:28:35.514Z,46.79
2017-04-02T13:29:44.415Z,47.36
2017-04-02T13:30:53.310Z,47.36
2017-04-02T13:32:02.213Z,47.75
2017-04-02T13:33:11.115Z,48.23
2017-04-02T13:34:20.167Z,48.97
2017-04-02T13:35:29.069Z,50.61
2017-04-02T13:36:37.972Z,50.23
2017-04-02T13:37:46.870Z,50.05
2017-04-02T13:38:56.427Z,50.25
2017-04-02T13:40:05.426Z,50.82
2017-04-02T13:41:14.328Z,50.61
2017-04-02T13:42:23.227Z,51.67
2017-04-02T13:43:32.132Z,49.84
2017-04-02T13:44:41.027Z,51.57
2017-04-02T13:45:50.026Z,50.58
2017-04-02T13:46:58.925Z,50.51
2017-04-02T13:48:07.870Z,50.39
2017-04-02T13:49:16.778Z,50.58
2017-04-02T13:50:25.676Z,51.25
2017-04-02T13:51:34.576Z,50.29
2017-04-02T13:52:43.476Z,51.25
2017-04-02T13:53:52.372Z,49.52
2017-04-02T13:55:01.266Z,48.85
2017-04-02T13:56:10.163Z,50.17
2017-04-02T13:57:19.117Z,50.08
2017-04-02T13:58:28.056Z,49.5
2017-04-02T13:59:36.958Z,50.27
2017-04-02T14:00:45.855Z,50.17
2017-04-02T14:01:55.083Z,50.37
2017-04-02T14:03:03.980Z,50.65
2017-04-02T14:04:13.201Z,51.9
2017-04-02T14:05:22.096Z,51.51
2017-04-02T14:06:31.333Z,50.27
2017-04-02T14:07:40.228Z,50.56
2017-04-02T14:08:49.138Z,51.61
2017-04-02T14:09:58.035Z,53.63
2017-04-02T14:11:06.940Z,56.12
2017-04-02T14:12:16.161Z,56.79
2017-04-02T14:13:25.058Z,56.86
2017-04-02T14:14:34.106Z,57.92
2017-04-02T14:15:43.361Z,57.72
2017-04-02T14:16:52.254Z,57.82
2017-04-02T14:18:01.147Z,58.2
2017-04-02T14:19:10.045Z,58.2
2017-04-02T14:20:19.096Z,58.69
2017-04-02T14:21:27.994Z,58.59
2017-04-02T14:22:36.892Z,58.49
2017-04-02T14:23:45.786Z,59.55
2017-04-02T14:24:54.676Z,59.06
2017-04-02T14:26:04.625Z,58.59
2017-04-02T14:27:13.857Z,58.87
2017-04-02T14:28:22.752Z,58.78
2017-04-02T14:29:31.659Z,58.11
2017-04-02T14:30:40.877Z,57.24
2017-04-02T14:31:49.925Z,56.67
2017-04-02T14:32:59.159Z,56.86
2017-04-02T14:34:08.052Z,56.38
2017-04-02T14:35:16.948Z,56.48
2017-04-02T14:36:25.847Z,56.19
2017-04-02T14:37:35.055Z,56.38
2017-04-02T14:38:43.950Z,56.96
2017-04-02T14:39:53.169Z,56.48
2017-04-02T14:41:02.062Z,56.76
2017-04-02T14:42:10.958Z,57.34
2017-04-02T14:43:20.225Z,58.11
2017-04-02T14:44:29.121Z,57.82
2017-04-02T14:45:38.018Z,58.11
2017-04-02T14:46:46.919Z,58.33
2017-04-02T14:47:55.861Z,56.89
2017-04-02T14:49:05.558Z,56.79
2017-04-02T14:50:14.461Z,54.49